Cave Creek, Arizona
Current Conditions -  °F | °C
As of 1:53 PM on Friday 24 Oct 2014 (Local Time) from KDVT Reporting Station
Clear Clear  
Wind Chill: 91°   Ceiling: Unl
Heat Index: 91°   Visibility: 10mi
Dew Point: 44°   Wind: 5mph
Humidity: 20%   Direction: NA
Pressure: 29.99"   Gusts: NA
Location:  33.83°N, 111.97°W
Report Text: KDVT 242053Z AUTO VRB04KT 10SM CLR 33/07 A2999 RMK AO2 SLP132 T03280067 58028 TSNO
Loading
Personal Weather Stations






























Interactive Weather Map
Tropical Storm Tracking
New forecast layout! Learn more

10-Day Weather Forecast

Advertisements
Track Severe Weather on mobile